Oriente Noble — 3FVF5 — position and weather

sailwx.info

Track history (hours):
 
Tides and Currents Weather Stations Pressure Air Temp Water Temp Dewpoint Dewpoint Depression Visibility Wind Speed Wind Dir Waves Ship Positions

Oriente Noble

Last reported at 2017-Nov-16 06:09 UTC. Time now 2017-Nov-18 23:25 UTC.
Position N 34°37' E 134°59'.

Type: Cargo ship. MMSI: 356638000.

Date/timePositionNaut miles runAvg speedWind from/ knotsBaromVisibWave heightAir tempDewpointWater temp
2017-Nov-16 06:09N 34°37' E 134°59'2 9.1
2017-Nov-16 05:54N 34°37' E 135°01'3 7.8
2017-Nov-16 05:29N 34°36' E 135°05'5 9.8
2017-Nov-16 05:00N 34°35' E 135°11'510.1
2017-Nov-16 04:30N 34°35' E 135°17'4 3.9
2017-Nov-16 03:27N 34°35' E 135°22'1 1.8
2017-Nov-16 03:00N 34°34' E 135°22'1 1.5
2017-Nov-16 02:30N 34°34' E 135°22'3 0.8
2017-Nov-15 22:16N 34°33' E 135°26'1 4.0
2017-Nov-15 22:00N 34°33' E 135°25'2 4.1
2017-Nov-15 21:30N 34°35' E 135°23'0 0.0
2017-Nov-15 20:50N 34°34' E 135°23'0 0.0
2017-Nov-15 20:07N 34°34' E 135°23'0 0.0
2017-Nov-15 19:50N 34°34' E 135°23'0 0.0
2017-Nov-15 18:44N 34°34' E 135°23'0 0.0
2017-Nov-15 18:14N 34°34' E 135°23'0 0.0
2017-Nov-15 17:56N 34°34' E 135°23'0 0.0
2017-Nov-15 16:56N 34°34' E 135°23'0 0.0
2017-Nov-15 16:26N 34°34' E 135°23'0 0.0
2017-Nov-15 14:25N 34°34' E 135°23'0 0.0
2017-Nov-15 13:56N 34°34' E 135°23'0 0.0
2017-Nov-15 13:20N 34°34' E 135°23'0 0.0
2017-Nov-15 12:01N 34°35' E 135°23'0 1.5
2017-Nov-15 11:59N 34°35' E 135°23'4 8.7
2017-Nov-15 11:30N 34°34' E 135°18'510.8
2017-Nov-15 11:00N 34°35' E 135°11'511.0
2017-Nov-15 10:30N 34°35' E 135°05'4 8.7
2017-Nov-15 09:59N 34°37' E 134°60'  
2017-Nov-07 11:24N 34°36' E 134°54'610.8
2017-Nov-07 10:51N 34°37' E 135°01'410.3
2017-Nov-07 10:30N 34°36' E 135°05'611.2
2017-Nov-07 10:00N 34°36' E 135°12'511.0
2017-Nov-07 09:30N 34°36' E 135°19'510.2
2017-Nov-07 08:59N 34°39' E 135°24'1 1.6
2017-Nov-07 08:02N 34°40' E 135°25'0 0.0
2017-Nov-07 07:50N 34°40' E 135°25'0 0.0
2017-Nov-07 07:26N 34°40' E 135°25'0 0.0
2017-Nov-07 05:56N 34°40' E 135°25'0 0.0
2017-Nov-07 05:26N 34°40' E 135°25'0 0.0
2017-Nov-07 04:56N 34°40' E 135°25'0 0.0
2017-Nov-07 04:26N 34°40' E 135°25'0 0.0
2017-Nov-07 03:32N 34°40' E 135°25'0 0.0
2017-Nov-07 03:08N 34°40' E 135°25'0 0.0
2017-Nov-07 01:51N 34°40' E 135°25'1 2.2
2017-Nov-07 01:30N 34°40' E 135°25'4 7.2
2017-Nov-07 01:00N 34°37' E 135°22'0 0.2
2017-Nov-07 00:30N 34°37' E 135°22'0 0.0
2017-Nov-07 00:00N 34°37' E 135°22'0 0.0
2017-Nov-06 23:30N 34°37' E 135°22'0 0.0
2017-Nov-06 23:00N 34°37' E 135°22'0 0.0
2017-Nov-06 22:30N 34°37' E 135°22'0 0.1
2017-Nov-06 22:00N 34°37' E 135°22'0 0.1
2017-Nov-06 21:30N 34°37' E 135°22'4 7.3
2017-Nov-06 21:00N 34°36' E 135°18'510.0
2017-Nov-06 20:30N 34°36' E 135°12'  
Track history (hours):
 
Tides and Currents Weather Stations Pressure Air Temp Water Temp Dewpoint Dewpoint Depression Visibility Wind Speed Wind Dir Waves Ship Positions

Oriente Noble

Last reported at 2017-Nov-16 06:09 UTC. Time now 2017-Nov-18 23:25 UTC.
Position N 34°37' E 134°59'.

Type: Cargo ship. MMSI: 356638000.

Date/timePositionNaut miles runAvg speedWind from/ knotsBaromVisibWave heightAir tempDewpointWater temp
2017-Nov-16 06:09N 34°37' E 134°59'2 9.1
2017-Nov-16 05:54N 34°37' E 135°01'3 7.8
2017-Nov-16 05:29N 34°36' E 135°05'5 9.8
2017-Nov-16 05:00N 34°35' E 135°11'510.1
2017-Nov-16 04:30N 34°35' E 135°17'4 3.9
2017-Nov-16 03:27N 34°35' E 135°22'1 1.8
2017-Nov-16 03:00N 34°34' E 135°22'1 1.5
2017-Nov-16 02:30N 34°34' E 135°22'3 0.8
2017-Nov-15 22:16N 34°33' E 135°26'1 4.0
2017-Nov-15 22:00N 34°33' E 135°25'2 4.1
2017-Nov-15 21:30N 34°35' E 135°23'0 0.0
2017-Nov-15 20:50N 34°34' E 135°23'0 0.0
2017-Nov-15 20:07N 34°34' E 135°23'0 0.0
2017-Nov-15 19:50N 34°34' E 135°23'0 0.0
2017-Nov-15 18:44N 34°34' E 135°23'0 0.0
2017-Nov-15 18:14N 34°34' E 135°23'0 0.0
2017-Nov-15 17:56N 34°34' E 135°23'0 0.0
2017-Nov-15 16:56N 34°34' E 135°23'0 0.0
2017-Nov-15 16:26N 34°34' E 135°23'0 0.0
2017-Nov-15 14:25N 34°34' E 135°23'0 0.0
2017-Nov-15 13:56N 34°34' E 135°23'0 0.0
2017-Nov-15 13:20N 34°34' E 135°23'0 0.0
2017-Nov-15 12:01N 34°35' E 135°23'0 1.5
2017-Nov-15 11:59N 34°35' E 135°23'4 8.7
2017-Nov-15 11:30N 34°34' E 135°18'510.8
2017-Nov-15 11:00N 34°35' E 135°11'511.0
2017-Nov-15 10:30N 34°35' E 135°05'4 8.7
2017-Nov-15 09:59N 34°37' E 134°60'  
2017-Nov-07 11:24N 34°36' E 134°54'610.8
2017-Nov-07 10:51N 34°37' E 135°01'410.3
2017-Nov-07 10:30N 34°36' E 135°05'611.2
2017-Nov-07 10:00N 34°36' E 135°12'511.0
2017-Nov-07 09:30N 34°36' E 135°19'510.2
2017-Nov-07 08:59N 34°39' E 135°24'1 1.6
2017-Nov-07 08:02N 34°40' E 135°25'0 0.0
2017-Nov-07 07:50N 34°40' E 135°25'0 0.0
2017-Nov-07 07:26N 34°40' E 135°25'0 0.0
2017-Nov-07 05:56N 34°40' E 135°25'0 0.0
2017-Nov-07 05:26N 34°40' E 135°25'0 0.0
2017-Nov-07 04:56N 34°40' E 135°25'0 0.0
2017-Nov-07 04:26N 34°40' E 135°25'0 0.0
2017-Nov-07 03:32N 34°40' E 135°25'0 0.0
2017-Nov-07 03:08N 34°40' E 135°25'0 0.0
2017-Nov-07 01:51N 34°40' E 135°25'1 2.2
2017-Nov-07 01:30N 34°40' E 135°25'4 7.2
2017-Nov-07 01:00N 34°37' E 135°22'0 0.2
2017-Nov-07 00:30N 34°37' E 135°22'0 0.0
2017-Nov-07 00:00N 34°37' E 135°22'0 0.0
2017-Nov-06 23:30N 34°37' E 135°22'0 0.0
2017-Nov-06 23:00N 34°37' E 135°22'0 0.0
2017-Nov-06 22:30N 34°37' E 135°22'0 0.1
2017-Nov-06 22:00N 34°37' E 135°22'0 0.1
2017-Nov-06 21:30N 34°37' E 135°22'4 7.3
2017-Nov-06 21:00N 34°36' E 135°18'510.0
2017-Nov-06 20:30N 34°36' E 135°12'  

Dump ship's entire track history